Aviation Digital Data Service (ADDS)

Output produced by METARs form (2255 UTC 23 October 2019)
found at http://www.aviationweather.gov/metar/data/
 
Forecast for: OKBK (KUWAIT INTL (MIL, KW)
Text: TAF OKBK 232245Z 2400/2506 14008G18KT 7000 NSC
Forecast period: 0000 UTC 24 October 2019 to 0600 UTC 25 October 2019
Forecast type: FROM: standard forecast or significant change
Winds: from the SE (140 degrees) at 9 MPH (8 knots; 4.1 m/s)
gusting to 21 MPH (18 knots; 9.3 m/s)
Visibility: 4 miles (7 km)
Ceiling: unknown
Clouds: missing
Weather: no significant weather forecast for this period
Text: TEMPO 2400/2408 VRB03KT
Forecast period: 0000 to 0800 UTC 24 October 2019
Forecast type: TEMPORARY: The following changes expected for less than half the time period
Winds: variable direction winds at 3 MPH (3 knots; 1.5 m/s)
Visibility: missing
Ceiling: unknown
Clouds: missing
Weather: no significant weather forecast for this period
Text: TEMPO 2400/2404 3000 BR
Forecast period: 0000 to 0400 UTC 24 October 2019
Forecast type: TEMPORARY: The following changes expected for less than half the time period
Visibility: 1.86 miles (2.99 km)
Ceiling: unknown
Clouds: missing
Weather: BR  (mist)